Terminal Aerodrome Forecast
Issued by NWS

Home | Current Version | Previous Version | Text Only | Print | Product List | Glossary On
Versions: 1 2 3 4 5 6 7 8 9 10 11 12 13 14 15 16 17 18 19 20 21 22
000
FTUS43 KEAX 271100
TAFSTJ
TAF
KSTJ 271120Z 2712/2812 VRB05KT P6SM VCTS BKN025CB
      TEMPO 2712/2714 04015KT 5SM -TSRA BR BKN015CB
     FM271600 VRB06KT P6SM FEW025 SCT080=

USA.gov is the U.S. government's official web portal to all federal, state and local government web resources and services.